createdAt,value
2024-05-09T00:01:09.143Z,99.90
2024-05-09T00:03:39.762Z,99.90
2024-05-09T00:06:12.262Z,99.90
2024-05-09T00:08:42.766Z,99.90
2024-05-09T00:11:13.342Z,99.90
2024-05-09T00:13:43.926Z,99.90
2024-05-09T00:16:17.187Z,99.90
2024-05-09T00:18:47.754Z,99.90
2024-05-09T00:21:18.368Z,99.90
2024-05-09T00:23:49.034Z,99.90
2024-05-09T00:26:20.408Z,99.90
2024-05-09T00:28:51.109Z,99.90
2024-05-09T00:31:24.317Z,99.90
2024-05-09T00:33:54.797Z,99.90
2024-05-09T00:36:25.292Z,99.90
2024-05-09T00:38:55.656Z,99.90
2024-05-09T00:41:26.166Z,99.90
2024-05-09T00:43:56.791Z,99.90
2024-05-09T00:46:30.012Z,99.90
2024-05-09T00:49:00.806Z,99.90
2024-05-09T00:51:31.367Z,99.90
2024-05-09T00:54:01.890Z,99.90
2024-05-09T00:56:32.417Z,99.90
2024-05-09T00:59:03.323Z,99.90
2024-05-09T01:01:37.167Z,99.90
2024-05-09T01:04:08.168Z,99.90
2024-05-09T01:06:38.781Z,99.90
2024-05-09T01:09:09.552Z,99.90
2024-05-09T01:11:41.004Z,99.90
2024-05-09T01:14:11.602Z,99.90
2024-05-09T01:16:45.494Z,99.90
2024-05-09T01:19:23.098Z,99.90
2024-05-09T01:21:53.720Z,99.90
2024-05-09T01:24:26.914Z,99.90
2024-05-09T01:26:57.336Z,99.90
2024-05-09T01:29:27.822Z,99.90
2024-05-09T01:31:59.324Z,99.90
2024-05-09T01:34:29.872Z,99.90
2024-05-09T01:37:00.387Z,99.90
2024-05-09T01:39:33.556Z,99.90
2024-05-09T01:42:04.173Z,99.90
2024-05-09T01:44:34.674Z,99.90
2024-05-09T01:47:05.597Z,99.90
2024-05-09T01:49:42.370Z,99.90
2024-05-09T01:52:12.927Z,99.90
2024-05-09T01:54:46.211Z,99.90
2024-05-09T01:57:16.704Z,99.90
2024-05-09T01:59:47.429Z,99.90
2024-05-09T02:02:18.050Z,99.90
2024-05-09T02:04:50.333Z,99.90
2024-05-09T02:07:21.278Z,99.90
2024-05-09T02:09:54.870Z,99.90
2024-05-09T02:12:25.415Z,99.90
2024-05-09T02:14:59.175Z,99.90
2024-05-09T02:17:29.805Z,99.90
2024-05-09T02:20:00.519Z,99.90
2024-05-09T02:22:31.139Z,99.90
2024-05-09T02:25:04.547Z,99.90
2024-05-09T02:27:35.243Z,99.90
2024-05-09T02:30:12.271Z,99.90
2024-05-09T02:32:49.163Z,99.90
2024-05-09T02:35:19.971Z,99.90
2024-05-09T02:37:47.983Z,99.90
2024-05-09T02:40:28.926Z,99.90
2024-05-09T02:43:04.011Z,99.90
2024-05-09T02:45:34.565Z,99.90
2024-05-09T02:48:02.991Z,99.90
2024-05-09T02:50:38.347Z,99.90
2024-05-09T02:53:08.259Z,99.90
2024-05-09T02:55:42.926Z,99.90
2024-05-09T02:58:11.845Z,99.90
2024-05-09T03:00:43.224Z,99.90
2024-05-09T03:03:14.034Z,99.90
2024-05-09T03:05:46.810Z,99.90
2024-05-09T03:08:15.083Z,99.90
2024-05-09T03:10:48.519Z,99.90
2024-05-09T03:13:16.670Z,99.90
2024-05-09T03:15:47.274Z,99.90
2024-05-09T03:18:18.697Z,99.90
2024-05-09T03:20:46.849Z,99.90
2024-05-09T03:23:17.501Z,99.90
2024-05-09T03:25:48.151Z,99.90
2024-05-09T03:28:18.608Z,99.90
2024-05-09T03:30:46.304Z,99.90
2024-05-09T03:33:19.506Z,99.90
2024-05-09T03:35:49.403Z,99.90
2024-05-09T03:38:20.381Z,99.90
2024-05-09T03:40:53.828Z,99.90
2024-05-09T03:43:24.391Z,99.90
2024-05-09T03:45:57.502Z,99.90
2024-05-09T03:48:25.429Z,99.90
2024-05-09T03:50:56.204Z,99.90
2024-05-09T03:53:25.319Z,99.90
2024-05-09T03:55:59.705Z,99.90
2024-05-09T03:58:27.537Z,99.90
2024-05-09T04:00:58.079Z,99.90
2024-05-09T04:03:26.073Z,99.90
2024-05-09T04:05:56.834Z,99.90
2024-05-09T04:08:24.628Z,99.90
2024-05-09T04:10:57.919Z,99.90
2024-05-09T04:13:25.694Z,99.90
2024-05-09T04:15:56.147Z,99.90
2024-05-09T04:18:24.107Z,99.90
2024-05-09T04:20:54.644Z,99.90
2024-05-09T04:23:22.428Z,99.90
2024-05-09T04:25:53.079Z,99.90
2024-05-09T04:28:24.139Z,99.90
2024-05-09T04:30:54.716Z,99.90
2024-05-09T04:33:22.933Z,99.90
2024-05-09T04:35:53.517Z,99.90
2024-05-09T04:38:21.635Z,99.90
2024-05-09T04:40:52.241Z,99.90
2024-05-09T04:43:22.716Z,99.90
2024-05-09T04:45:53.626Z,99.90
2024-05-09T04:48:21.829Z,99.90
2024-05-09T04:50:52.404Z,99.90
2024-05-09T04:53:20.521Z,99.90
2024-05-09T04:55:51.490Z,99.90
2024-05-09T04:58:19.371Z,99.90
2024-05-09T05:00:52.544Z,99.90
2024-05-09T05:03:20.783Z,99.90
2024-05-09T05:05:51.659Z,99.90
2024-05-09T05:08:20.052Z,99.90
2024-05-09T05:10:51.116Z,99.90
2024-05-09T05:13:24.001Z,99.90
2024-05-09T05:15:58.721Z,99.90
2024-05-09T05:18:28.073Z,99.90
2024-05-09T05:20:59.784Z,99.90
2024-05-09T05:23:27.952Z,99.90
2024-05-09T05:25:58.816Z,99.90
2024-05-09T05:28:26.777Z,99.90
2024-05-09T05:31:00.431Z,99.90
2024-05-09T05:33:28.509Z,99.90
2024-05-09T05:35:59.244Z,99.90
2024-05-09T05:38:28.393Z,99.90
2024-05-09T05:40:59.549Z,99.90
2024-05-09T05:43:29.710Z,99.90
2024-05-09T05:46:03.068Z,99.90
2024-05-09T05:48:30.954Z,99.90
2024-05-09T05:51:04.347Z,99.90
2024-05-09T05:53:32.536Z,99.90
2024-05-09T05:56:03.140Z,99.90
2024-05-09T05:58:30.873Z,99.90
2024-05-09T06:01:04.307Z,99.90
2024-05-09T06:03:32.340Z,99.90
2024-05-09T06:06:06.315Z,99.90
2024-05-09T06:08:34.300Z,99.90
2024-05-09T06:11:05.784Z,99.90
2024-05-09T06:13:33.780Z,99.90
2024-05-09T06:16:07.659Z,99.90
2024-05-09T06:18:36.295Z,99.90
2024-05-09T06:21:07.084Z,99.90
2024-05-09T06:23:35.119Z,99.90
2024-05-09T06:26:07.525Z,99.90
2024-05-09T06:28:36.536Z,99.90
2024-05-09T06:31:09.634Z,99.90
2024-05-09T06:33:37.641Z,99.90
2024-05-09T06:36:08.832Z,99.90
2024-05-09T06:38:38.304Z,99.90
2024-05-09T06:41:09.071Z,99.90
2024-05-09T06:43:37.476Z,99.90
2024-05-09T06:46:10.818Z,99.90
2024-05-09T06:48:39.443Z,99.90
2024-05-09T06:51:10.152Z,99.90
2024-05-09T06:53:40.664Z,99.90
2024-05-09T06:56:11.532Z,99.90
2024-05-09T06:58:39.379Z,99.90
2024-05-09T07:01:12.673Z,99.90
2024-05-09T07:03:42.427Z,99.90
2024-05-09T07:06:12.975Z,99.90
2024-05-09T07:08:41.342Z,99.90
2024-05-09T07:11:11.962Z,99.90
2024-05-09T07:13:39.712Z,99.90
2024-05-09T07:16:12.907Z,99.90
2024-05-09T07:18:41.183Z,99.90
2024-05-09T07:21:12.198Z,99.90
2024-05-09T07:23:41.862Z,99.90
2024-05-09T07:26:13.551Z,99.90
2024-05-09T07:28:41.535Z,99.90
2024-05-09T07:31:15.288Z,99.90
2024-05-09T07:33:43.487Z,99.90
2024-05-09T07:36:13.956Z,99.90
2024-05-09T07:38:41.848Z,99.90
2024-05-09T07:41:12.374Z,99.90
2024-05-09T07:43:40.276Z,99.90
2024-05-09T07:53:52.327Z,99.90
2024-05-09T07:56:28.306Z,99.90
2024-05-09T07:58:56.598Z,99.90
2024-05-09T08:01:29.899Z,99.90
2024-05-09T08:03:57.879Z,99.90
2024-05-09T08:06:29.944Z,99.90
2024-05-09T08:09:02.810Z,99.90
2024-05-09T08:11:36.050Z,99.90
2024-05-09T08:14:03.874Z,99.90
2024-05-09T08:16:37.073Z,99.90
2024-05-09T08:19:04.895Z,99.90
2024-05-09T08:21:35.517Z,99.90
2024-05-09T08:24:03.430Z,99.90
2024-05-09T08:26:34.046Z,99.90
2024-05-09T08:29:03.365Z,99.90
2024-05-09T08:31:39.685Z,99.90
2024-05-09T08:34:07.525Z,99.90
2024-05-09T08:36:40.038Z,99.90
2024-05-09T08:39:07.806Z,99.90
2024-05-09T08:41:41.308Z,99.90
2024-05-09T08:44:10.339Z,99.90
2024-05-09T08:46:45.340Z,99.90
2024-05-09T08:49:14.498Z,99.90
2024-05-09T08:51:45.077Z,99.90
2024-05-09T08:54:12.954Z,99.90
2024-05-09T08:56:48.402Z,99.90
2024-05-09T08:59:24.214Z,99.90
2024-05-09T09:01:58.339Z,99.90
2024-05-09T09:04:27.927Z,99.90
2024-05-09T09:07:00.299Z,99.90
2024-05-09T09:09:29.336Z,99.90
2024-05-09T09:11:59.998Z,99.90
2024-05-09T09:14:27.832Z,99.90
2024-05-09T09:17:01.040Z,99.90
2024-05-09T09:19:29.119Z,99.90
2024-05-09T09:21:59.544Z,99.40
2024-05-09T09:24:27.787Z,98.50
2024-05-09T09:27:00.460Z,97.50
2024-05-09T09:29:28.354Z,95.40
2024-05-09T09:32:08.212Z,95.50
2024-05-09T09:34:36.932Z,93.70
2024-05-09T09:37:09.584Z,93.10
2024-05-09T09:39:39.976Z,92.20
2024-05-09T09:42:10.749Z,91.40
2024-05-09T09:44:42.196Z,91.10
2024-05-09T09:47:16.658Z,91.80
2024-05-09T09:49:45.834Z,87.90
2024-05-09T09:52:16.857Z,87.40
2024-05-09T09:54:46.179Z,88.90
2024-05-09T09:57:17.354Z,89.60
2024-05-09T09:59:47.207Z,89.60
2024-05-09T10:02:20.565Z,88.60
2024-05-09T10:04:48.694Z,87.30
2024-05-09T10:07:22.420Z,85.70
2024-05-09T10:09:54.919Z,84.40
2024-05-09T10:12:28.792Z,83.10
2024-05-09T10:14:56.609Z,80.50
2024-05-09T10:17:29.943Z,79.70
2024-05-09T10:20:14.391Z,78.90
2024-05-09T10:22:52.236Z,78.30
2024-05-09T10:25:20.191Z,77.90
2024-05-09T10:28:02.763Z,77.80
2024-05-09T10:30:35.900Z,77.40
2024-05-09T10:33:44.789Z,78.30
2024-05-09T10:36:14.758Z,78.70
2024-05-09T10:38:46.080Z,77.00
2024-05-09T10:41:13.918Z,76.60
2024-05-09T10:43:48.325Z,76.30
2024-05-09T10:46:20.018Z,78.60
2024-05-09T10:48:57.906Z,81.20
2024-05-09T10:51:26.861Z,81.00
2024-05-09T10:53:58.821Z,81.30
2024-05-09T10:56:26.960Z,80.90
2024-05-09T10:58:57.600Z,80.30
2024-05-09T11:01:25.649Z,76.70
2024-05-09T11:04:00.229Z,75.40
2024-05-09T11:06:36.326Z,74.60
2024-05-09T11:09:11.640Z,73.30
2024-05-09T11:11:39.812Z,73.10
2024-05-09T11:14:15.599Z,71.10
2024-05-09T11:16:43.379Z,70.40
2024-05-09T11:19:20.299Z,68.90
2024-05-09T11:21:51.875Z,67.00
2024-05-09T11:24:23.451Z,68.40
2024-05-09T11:27:21.337Z,68.20
2024-05-09T11:29:48.716Z,67.70
2024-05-09T11:32:16.789Z,65.90
2024-05-09T11:34:50.150Z,65.10
2024-05-09T11:37:18.358Z,65.00
2024-05-09T11:39:49.073Z,64.80
2024-05-09T11:42:17.706Z,65.00
2024-05-09T11:44:48.278Z,64.90
2024-05-09T11:47:16.166Z,64.50
2024-05-09T11:49:50.212Z,63.80
2024-05-09T11:52:20.389Z,63.50
2024-05-09T11:54:51.115Z,62.60
2024-05-09T11:57:19.011Z,62.60
2024-05-09T11:59:49.590Z,62.20
2024-05-09T12:02:18.297Z,60.80
2024-05-09T12:04:54.045Z,63.30
2024-05-09T12:07:22.021Z,63.40
2024-05-09T12:09:52.671Z,66.00
2024-05-09T12:12:20.620Z,66.70
2024-05-09T12:14:51.145Z,69.20
2024-05-09T12:17:22.278Z,69.00
2024-05-09T12:19:55.758Z,67.70
2024-05-09T12:22:23.523Z,70.10
2024-05-09T12:24:54.520Z,69.70
2024-05-09T12:27:22.579Z,69.50
2024-05-09T12:29:53.519Z,67.40
2024-05-09T12:32:22.817Z,67.80
2024-05-09T12:34:56.257Z,65.20
2024-05-09T12:37:24.143Z,64.30
2024-05-09T12:39:54.701Z,62.90
2024-05-09T12:42:27.387Z,61.90
2024-05-09T12:44:59.293Z,61.00
2024-05-09T12:47:27.305Z,60.10
2024-05-09T12:50:00.803Z,59.40
2024-05-09T12:52:29.323Z,58.90
2024-05-09T12:55:00.396Z,59.30
2024-05-09T12:57:29.363Z,59.30
2024-05-09T13:00:00.360Z,59.30
2024-05-09T13:02:28.422Z,60.70
2024-05-09T13:05:02.242Z,59.30
2024-05-09T13:07:33.411Z,62.70
2024-05-09T13:10:13.809Z,65.10
2024-05-09T13:12:44.196Z,67.50
2024-05-09T13:15:14.949Z,68.50
2024-05-09T13:17:45.831Z,69.00
2024-05-09T13:20:25.713Z,69.30
2024-05-09T13:23:04.292Z,70.40
2024-05-09T13:25:38.318Z,69.90
2024-05-09T13:31:23.855Z,71.50
2024-05-09T13:33:53.131Z,71.50
2024-05-09T13:36:36.087Z,71.50
2024-05-09T13:39:04.707Z,71.00
2024-05-09T13:41:35.832Z,71.10
2024-05-09T13:44:04.682Z,70.10
2024-05-09T13:46:35.913Z,69.40
2024-05-09T13:49:04.685Z,69.40
2024-05-09T13:51:38.662Z,66.70
2024-05-09T13:54:06.774Z,66.00
2024-05-09T13:56:40.665Z,65.10
2024-05-09T13:59:09.323Z,64.40
2024-05-09T14:01:40.415Z,63.30
2024-05-09T14:04:10.259Z,63.20
2024-05-09T14:06:45.215Z,62.20
2024-05-09T14:09:13.522Z,63.10
2024-05-09T14:11:44.403Z,63.40
2024-05-09T14:14:12.644Z,63.70
2024-05-09T14:16:45.468Z,63.40
2024-05-09T14:19:14.246Z,63.80
2024-05-09T14:21:50.703Z,62.20
2024-05-09T14:24:19.053Z,61.80
2024-05-09T14:26:53.607Z,60.80
2024-05-09T14:29:35.651Z,60.70
2024-05-09T14:32:07.837Z,60.60
2024-05-09T14:34:42.646Z,60.30
2024-05-09T14:37:36.239Z,59.10
2024-05-09T14:40:07.408Z,58.60
2024-05-09T14:43:34.478Z,58.50
2024-05-09T14:45:56.576Z,60.70
2024-05-09T14:48:28.027Z,62.30
2024-05-09T14:51:06.651Z,63.50
2024-05-09T14:53:40.218Z,64.40
2024-05-09T14:56:08.683Z,65.30
2024-05-09T14:58:39.860Z,67.10
2024-05-09T15:01:08.022Z,68.70
2024-05-09T15:03:38.871Z,69.40
2024-05-09T15:06:07.172Z,70.10
2024-05-09T15:08:42.100Z,71.20
2024-05-09T15:11:17.302Z,71.10
2024-05-09T15:18:18.136Z,70.00
2024-05-09T15:20:55.796Z,69.90
2024-05-09T15:24:05.893Z,67.80
2024-05-09T15:27:53.203Z,65.70
2024-05-09T15:30:30.754Z,65.50
2024-05-09T15:33:48.464Z,66.40
2024-05-09T15:36:17.356Z,67.60
2024-05-09T15:40:31.716Z,69.30
2024-05-09T15:42:23.895Z,70.00
2024-05-09T15:45:13.531Z,71.60
2024-05-09T15:47:50.261Z,70.80
2024-05-09T15:50:28.269Z,71.30
2024-05-09T15:53:07.888Z,72.40
2024-05-09T15:55:40.528Z,73.30
2024-05-09T15:58:13.386Z,73.10
2024-05-09T16:00:44.225Z,73.30
2024-05-09T16:03:24.062Z,73.70
2024-05-09T16:05:59.195Z,73.80
2024-05-09T16:08:30.819Z,73.50
2024-05-09T16:11:05.694Z,73.80
2024-05-09T16:13:36.693Z,73.80
2024-05-09T16:16:04.881Z,74.90
2024-05-09T16:18:36.003Z,75.10
2024-05-09T16:21:04.099Z,74.20
2024-05-09T16:23:34.885Z,73.50
2024-05-09T16:26:05.879Z,73.80
2024-05-09T16:28:37.064Z,73.10
2024-05-09T16:31:05.532Z,72.90
2024-05-09T16:33:36.481Z,72.80
2024-05-09T16:36:05.269Z,72.10
2024-05-09T16:38:35.998Z,72.10
2024-05-09T16:41:06.808Z,72.90
2024-05-09T16:43:38.937Z,73.70
2024-05-09T16:46:06.869Z,74.80
2024-05-09T16:48:40.722Z,75.00
2024-05-09T16:51:08.849Z,75.00
2024-05-09T16:53:39.471Z,74.90
2024-05-09T16:56:10.346Z,75.30
2024-05-09T16:58:41.105Z,74.00
2024-05-09T17:01:08.881Z,74.90
2024-05-09T17:03:39.598Z,75.00
2024-05-09T17:06:07.690Z,74.80
2024-05-09T17:08:38.210Z,75.00
2024-05-09T17:11:06.129Z,75.90
2024-05-09T17:13:41.310Z,76.30
2024-05-09T17:16:13.659Z,77.20
2024-05-09T17:18:44.410Z,77.10
2024-05-09T17:21:12.305Z,76.00
2024-05-09T17:23:42.755Z,74.60
2024-05-09T17:26:13.768Z,75.10
2024-05-09T17:28:47.072Z,74.60
2024-05-09T17:31:15.295Z,73.90
2024-05-09T17:33:46.067Z,72.70
2024-05-09T17:36:14.049Z,73.50
2024-05-09T17:38:55.028Z,74.40
2024-05-09T17:41:22.843Z,75.90
2024-05-09T17:43:56.038Z,77.10
2024-05-09T17:46:27.122Z,77.80
2024-05-09T17:48:57.376Z,78.10
2024-05-09T17:51:29.415Z,79.00
2024-05-09T17:53:57.194Z,79.00
2024-05-09T17:56:27.718Z,79.80
2024-05-09T17:58:58.290Z,80.10
2024-05-09T18:01:28.945Z,80.90
2024-05-09T18:03:56.874Z,81.60
2024-05-09T18:06:27.522Z,81.70
2024-05-09T18:08:55.334Z,82.40
2024-05-09T18:11:26.126Z,82.90
2024-05-09T18:13:54.487Z,82.80
2024-05-09T18:16:28.490Z,83.20
2024-05-09T18:18:56.607Z,83.30
2024-05-09T18:21:27.285Z,83.50
2024-05-09T18:23:57.388Z,83.90
2024-05-09T18:26:29.499Z,84.40
2024-05-09T18:28:57.493Z,84.90
2024-05-09T18:31:31.088Z,85.70
2024-05-09T18:33:58.852Z,87.10
2024-05-09T18:36:30.276Z,88.00
2024-05-09T18:38:58.355Z,88.90
2024-05-09T18:41:28.895Z,89.90
2024-05-09T18:44:02.590Z,90.90
2024-05-09T18:46:33.240Z,92.20
2024-05-09T18:49:04.027Z,93.60
2024-05-09T18:51:32.205Z,94.50
2024-05-09T18:54:02.640Z,95.40
2024-05-09T18:56:30.511Z,96.30
2024-05-09T18:59:01.173Z,97.30
2024-05-09T19:01:32.255Z,97.90
2024-05-09T19:04:03.131Z,98.50
2024-05-09T19:06:31.034Z,99.10
2024-05-09T19:09:02.652Z,99.30
2024-05-09T19:11:31.173Z,99.60
2024-05-09T19:14:04.884Z,99.90
2024-05-09T19:16:36.404Z,99.90
2024-05-09T19:19:07.949Z,99.90
2024-05-09T19:21:36.065Z,99.90
2024-05-09T19:24:08.059Z,99.90
2024-05-09T19:26:35.899Z,99.90
2024-05-09T19:29:06.812Z,99.90
2024-05-09T19:34:50.349Z,99.90
2024-05-09T19:37:21.230Z,99.90
2024-05-09T19:40:12.458Z,99.90
2024-05-09T19:43:16.415Z,99.90
2024-05-09T19:46:03.403Z,99.90
2024-05-09T19:49:16.502Z,99.90
2024-05-09T19:51:55.375Z,99.90
2024-05-09T19:54:47.929Z,99.90
2024-05-09T19:57:30.338Z,99.90
2024-05-09T20:00:04.355Z,99.90
2024-05-09T20:02:40.326Z,99.90
2024-05-09T20:05:37.621Z,99.90
2024-05-09T20:08:14.884Z,99.90
2024-05-09T20:10:58.605Z,99.90
2024-05-09T20:13:59.788Z,99.90
2024-05-09T20:16:30.593Z,99.90
2024-05-09T20:21:49.832Z,99.90
2024-05-09T20:24:49.782Z,99.90
2024-05-09T20:27:24.055Z,99.90
2024-05-09T20:29:54.672Z,99.90
2024-05-09T20:32:26.900Z,99.90
2024-05-09T20:34:56.060Z,99.90
2024-05-09T20:37:32.622Z,99.90
2024-05-09T20:40:03.792Z,99.90
2024-05-09T20:42:37.384Z,99.90
2024-05-09T20:45:06.760Z,99.90
2024-05-09T20:47:37.667Z,99.90
2024-05-09T20:50:13.697Z,99.90
2024-05-09T20:52:58.255Z,99.90
2024-05-09T20:55:30.296Z,99.90
2024-05-09T20:58:01.208Z,99.90
2024-05-09T21:00:35.568Z,99.90
2024-05-09T21:03:11.082Z,99.90
2024-05-09T21:05:39.780Z,99.90
2024-05-09T21:08:13.516Z,99.90
2024-05-09T21:10:41.891Z,99.90
2024-05-09T21:13:12.596Z,99.90
2024-05-09T21:15:40.435Z,99.90
2024-05-09T21:18:11.352Z,99.90
2024-05-09T21:20:39.252Z,99.90
2024-05-09T21:23:12.505Z,99.90
2024-05-09T21:25:40.382Z,99.90
2024-05-09T21:28:11.041Z,99.90
2024-05-09T21:30:42.422Z,99.90
2024-05-09T21:33:15.189Z,99.90
2024-05-09T21:35:44.628Z,99.90
2024-05-09T21:38:18.507Z,99.90
2024-05-09T21:40:46.548Z,99.90
2024-05-09T21:43:19.333Z,99.90
2024-05-09T21:45:50.297Z,99.90
2024-05-09T21:48:20.920Z,99.90
2024-05-09T21:50:48.728Z,99.90
2024-05-09T21:53:22.011Z,99.90
2024-05-09T21:55:53.250Z,99.90
2024-05-09T21:58:23.804Z,99.90
2024-05-09T22:00:51.894Z,99.90
2024-05-09T22:03:22.561Z,99.90
2024-05-09T22:05:50.417Z,99.90
2024-05-09T22:08:23.660Z,99.90
2024-05-09T22:10:51.767Z,99.90
2024-05-09T22:13:25.884Z,99.90
2024-05-09T22:15:58.434Z,99.90
2024-05-09T22:18:30.449Z,99.90
2024-05-09T22:20:58.261Z,99.90
2024-05-09T22:23:31.500Z,99.90
2024-05-09T22:25:59.266Z,99.90
2024-05-09T22:28:29.850Z,99.90
2024-05-09T22:30:57.859Z,99.90
2024-05-09T22:33:28.598Z,99.90
2024-05-09T22:35:56.436Z,99.90
2024-05-09T22:38:26.999Z,99.90
2024-05-09T22:40:57.483Z,99.90
2024-05-09T22:43:27.996Z,99.90
2024-05-09T22:45:56.105Z,99.90
2024-05-09T22:48:27.196Z,99.90
2024-05-09T22:50:55.235Z,99.90
2024-05-09T22:53:26.714Z,99.90
2024-05-09T22:55:57.290Z,99.90
2024-05-09T22:58:28.113Z,99.90
2024-05-09T23:00:56.162Z,99.90
2024-05-09T23:03:27.183Z,99.90
2024-05-09T23:05:55.210Z,99.90
2024-05-09T23:08:26.007Z,99.90
2024-05-09T23:10:53.953Z,99.90
2024-05-09T23:13:27.177Z,99.90
2024-05-09T23:15:54.988Z,99.90
2024-05-09T23:18:25.536Z,99.90
2024-05-09T23:20:53.499Z,99.90
2024-05-09T23:23:24.139Z,99.90
2024-05-09T23:25:52.007Z,99.90
2024-05-09T23:28:22.558Z,99.90
2024-05-09T23:30:53.057Z,99.90
2024-05-09T23:33:23.546Z,99.90
2024-05-09T23:35:51.371Z,99.90
2024-05-09T23:38:23.826Z,99.90
2024-05-09T23:40:51.884Z,99.90
2024-05-09T23:43:22.513Z,99.90
2024-05-09T23:45:53.067Z,99.90
2024-05-09T23:48:23.630Z,99.90
2024-05-09T23:50:51.804Z,99.90
2024-05-09T23:53:22.179Z,99.90
2024-05-09T23:55:49.958Z,99.90
2024-05-09T23:58:23.316Z,99.90
